Time;durP1;ratioP1;P1;durP2;ratioP2;P2;SDS_P1;SDS_P2;PMS_P1;PMS_P2;Temp;Humidity;BMP_temperature;BMP_pressure;BME280_temperature;BME280_humidity;BME280_pressure;Samples;Min_cycle;Max_cycle;Signal;HPM_P1;HPM_P2
2023/12/28 00:00:30;;;;;;;3.77;3.10;;;11.00;99.90;;;;;;5095294;28;20204;-73
2023/12/28 00:02:56;;;;;;;3.37;3.07;;;11.00;99.90;;;;;;5095700;28;20186;-73
2023/12/28 00:05:21;;;;;;;3.30;3.10;;;11.00;99.90;;;;;;5095397;28;20198;-72
2023/12/28 00:07:47;;;;;;;5.30;3.20;;;11.00;99.90;;;;;;5095280;28;20213;-73
2023/12/28 00:10:12;;;;;;;2.90;2.70;;;11.10;99.90;;;;;;5095150;28;20648;-73
2023/12/28 00:12:38;;;;;;;3.73;3.30;;;11.10;99.90;;;;;;5077164;28;20557;-73
2023/12/28 00:15:04;;;;;;;3.50;3.20;;;11.20;99.90;;;;;;5094783;28;20228;-73
2023/12/28 00:17:30;;;;;;;3.17;2.97;;;11.20;99.90;;;;;;5095150;28;20210;-73
2023/12/28 00:19:56;;;;;;;4.30;3.10;;;11.20;99.90;;;;;;5095122;28;20631;-74
2023/12/28 00:22:21;;;;;;;4.50;3.40;;;11.20;99.90;;;;;;5095023;28;20172;-73
2023/12/28 00:24:47;;;;;;;3.23;3.00;;;11.20;99.90;;;;;;5094574;28;20194;-74
2023/12/28 00:27:12;;;;;;;3.30;3.00;;;11.30;99.90;;;;;;5094865;28;20172;-72
2023/12/28 00:29:38;;;;;;;4.17;3.20;;;11.20;99.90;;;;;;5094577;28;20674;-73
2023/12/28 00:32:05;;;;;;;4.00;2.77;;;11.20;99.90;;;;;;5094726;28;20164;-73
2023/12/28 00:34:31;;;;;;;4.50;3.00;;;11.20;99.90;;;;;;5094137;28;20176;-73
2023/12/28 00:36:56;;;;;;;4.00;2.97;;;11.20;99.90;;;;;;5076559;28;20176;-73
2023/12/28 00:39:22;;;;;;;5.47;3.43;;;11.20;99.90;;;;;;5094400;28;20164;-73
2023/12/28 00:41:48;;;;;;;4.50;2.93;;;11.20;99.90;;;;;;5076534;28;20658;-72
2023/12/28 00:44:13;;;;;;;3.03;2.80;;;11.20;99.90;;;;;;5094565;28;20575;-74
2023/12/28 00:46:39;;;;;;;3.43;3.07;;;11.20;99.90;;;;;;5094514;28;20168;-73
2023/12/28 00:49:05;;;;;;;6.20;3.17;;;11.30;99.90;;;;;;5094531;28;20168;-72
2023/12/28 00:51:30;;;;;;;4.07;3.00;;;11.20;99.90;;;;;;5094518;28;20174;-74
2023/12/28 00:53:56;;;;;;;3.80;3.40;;;11.20;99.90;;;;;;5093994;28;20164;-73
2023/12/28 00:56:21;;;;;;;4.00;3.33;;;11.20;99.90;;;;;;5094345;28;20513;-73
2023/12/28 00:58:47;;;;;;;3.87;3.00;;;11.10;99.90;;;;;;5094268;28;20386;-72
2023/12/28 01:01:12;;;;;;;5.20;2.90;;;11.10;99.90;;;;;;5094062;28;20287;-73
2023/12/28 01:03:38;;;;;;;3.30;3.00;;;11.20;99.90;;;;;;5076022;28;20259;-73
2023/12/28 01:06:07;;;;;;;4.70;3.27;;;11.20;99.90;;;;;;5076207;28;20180;-71
2023/12/28 01:08:35;;;;;;;4.80;2.97;;;11.10;99.90;;;;;;5093863;28;20168;-72
2023/12/28 01:11:02;;;;;;;5.30;3.20;;;11.10;99.90;;;;;;5093934;28;20198;-73
2023/12/28 01:13:28;;;;;;;3.40;3.10;;;11.10;99.90;;;;;;5093903;28;20180;-72
2023/12/28 01:15:54;;;;;;;7.03;3.10;;;11.10;99.90;;;;;;5094202;28;20187;-72
2023/12/28 01:18:20;;;;;;;4.00;3.30;;;11.20;99.90;;;;;;5094004;28;20623;-73
2023/12/28 01:20:46;;;;;;;5.00;3.30;;;11.10;99.90;;;;;;5093878;28;20207;-72
2023/12/28 01:23:11;;;;;;;3.50;3.20;;;11.10;99.90;;;;;;5093499;28;20183;-73
2023/12/28 01:25:37;;;;;;;4.77;3.20;;;11.10;99.90;;;;;;5093661;28;20573;-72
2023/12/28 01:28:03;;;;;;;4.87;3.20;;;11.10;99.90;;;;;;5093567;28;20226;-73
2023/12/28 01:30:28;;;;;;;4.93;3.37;;;11.00;99.90;;;;;;5093674;28;20262;-72
2023/12/28 01:32:54;;;;;;;4.97;3.40;;;10.90;99.90;;;;;;5075510;28;20171;-72
2023/12/28 01:35:20;;;;;;;4.77;3.40;;;11.00;99.90;;;;;;5093570;28;20214;-72
2023/12/28 01:37:45;;;;;;;4.60;3.13;;;10.90;99.90;;;;;;5075247;28;20225;-72
2023/12/28 01:40:11;;;;;;;4.53;2.87;;;11.00;99.90;;;;;;5075349;28;20207;-72
2023/12/28 01:42:37;;;;;;;3.90;3.00;;;11.00;99.90;;;;;;5093426;28;20179;-71
2023/12/28 01:45:03;;;;;;;3.77;3.47;;;11.00;99.90;;;;;;5093377;28;20661;-72
2023/12/28 01:47:30;;;;;;;3.67;3.23;;;11.00;99.90;;;;;;5092560;28;20528;-72
2023/12/28 01:49:56;;;;;;;3.70;2.93;;;11.00;99.90;;;;;;5093612;28;20178;-73
2023/12/28 01:52:22;;;;;;;4.27;2.83;;;11.00;99.90;;;;;;5093489;28;20629;-72
2023/12/28 01:54:49;;;;;;;3.67;2.83;;;11.00;99.90;;;;;;5075232;28;20260;-72
2023/12/28 01:57:15;;;;;;;3.43;3.13;;;11.00;99.90;;;;;;5093196;28;20168;-72
2023/12/28 01:59:41;;;;;;;5.43;2.70;;;11.10;99.90;;;;;;5093270;28;20290;-72
2023/12/28 02:02:07;;;;;;;3.13;2.83;;;11.10;99.90;;;;;;5093422;28;20214;-71
2023/12/28 02:04:33;;;;;;;3.20;2.90;;;11.10;99.90;;;;;;5093347;28;20187;-72
2023/12/28 02:07:00;;;;;;;3.10;2.70;;;11.10;99.90;;;;;;5093093;28;20225;-72
2023/12/28 02:09:26;;;;;;;5.00;2.60;;;11.10;99.90;;;;;;5093183;28;20665;-72
2023/12/28 02:11:53;;;;;;;3.97;2.60;;;11.10;99.90;;;;;;5092985;28;20200;-72
2023/12/28 02:14:19;;;;;;;4.63;2.80;;;11.10;99.90;;;;;;5093012;28;20552;-72
2023/12/28 02:16:49;;;;;;;3.50;2.53;;;11.00;99.90;;;;;;5093435;28;20175;-72
2023/12/28 02:19:23;;;;;;;4.83;2.93;;;11.10;99.90;;;;;;5092941;28;20186;-72
2023/12/28 02:21:50;;;;;;;5.53;3.10;;;11.10;99.90;;;;;;5074544;28;20192;-72
2023/12/28 02:24:15;;;;;;;3.17;2.47;;;11.10;99.90;;;;;;5092810;28;20163;-72
2023/12/28 02:26:41;;;;;;;4.47;2.60;;;11.10;99.90;;;;;;5092852;28;20634;-72
2023/12/28 02:29:08;;;;;;;2.60;2.40;;;11.10;99.90;;;;;;5092965;28;20706;-72
2023/12/28 02:31:42;;;;;;;2.87;2.50;;;11.20;99.90;;;;;;5093119;28;20160;-72
2023/12/28 02:34:22;;;;;;;4.53;2.40;;;11.10;99.90;;;;;;5092836;28;20179;-71
2023/12/28 02:36:48;;;;;;;4.13;2.87;;;11.20;99.90;;;;;;5092971;28;20661;-72
2023/12/28 02:39:16;;;;;;;4.43;2.53;;;11.30;99.90;;;;;;5092921;28;20187;-72
2023/12/28 02:41:44;;;;;;;3.37;2.90;;;11.30;99.90;;;;;;5093136;28;20204;-72
2023/12/28 02:44:10;;;;;;;5.80;2.67;;;11.40;99.90;;;;;;5092785;28;20167;-72
2023/12/28 02:46:35;;;;;;;4.90;2.73;;;11.40;99.90;;;;;;5093094;28;20167;-72
2023/12/28 02:49:01;;;;;;;5.33;2.63;;;11.40;99.90;;;;;;5092811;28;20673;-72
2023/12/28 02:51:27;;;;;;;5.73;3.00;;;11.40;99.90;;;;;;5092917;28;20385;-72
2023/12/28 02:53:52;;;;;;;3.33;2.70;;;11.40;99.90;;;;;;5092826;28;20164;-72
2023/12/28 02:56:18;;;;;;;5.10;2.80;;;11.30;99.90;;;;;;5092867;28;20172;-72
2023/12/28 02:58:43;;;;;;;8.73;2.70;;;11.30;99.90;;;;;;5076956;28;20176;-72
2023/12/28 03:01:09;;;;;;;6.83;2.93;;;11.30;99.90;;;;;;5096687;28;20560;-72
2023/12/28 03:03:34;;;;;;;5.77;2.67;;;11.40;99.90;;;;;;5096241;28;20238;-71
2023/12/28 03:06:00;;;;;;;5.37;2.70;;;11.30;99.90;;;;;;5096454;28;20255;-72
2023/12/28 03:08:26;;;;;;;4.07;2.67;;;11.40;99.90;;;;;;5096490;28;20595;-72
2023/12/28 03:10:52;;;;;;;3.97;2.90;;;11.30;99.90;;;;;;5096238;28;20188;-73
2023/12/28 03:13:18;;;;;;;4.30;2.43;;;11.30;99.90;;;;;;5096309;28;20312;-73
2023/12/28 03:15:43;;;;;;;4.13;2.40;;;11.20;99.90;;;;;;5096353;28;20203;-72
2023/12/28 03:18:09;;;;;;;4.80;2.60;;;11.30;99.90;;;;;;5077911;28;20661;-72
2023/12/28 03:20:35;;;;;;;6.27;2.70;;;11.30;99.90;;;;;;5096124;28;20256;-72
2023/12/28 03:23:00;;;;;;;5.20;2.30;;;11.30;99.90;;;;;;5096276;28;20168;-71
2023/12/28 03:25:26;;;;;;;3.80;2.37;;;11.30;99.90;;;;;;5095968;28;20168;-72
2023/12/28 03:27:51;;;;;;;5.23;2.30;;;11.30;99.90;;;;;;5095809;28;20215;-72
2023/12/28 03:30:17;;;;;;;3.90;2.17;;;11.30;99.90;;;;;;5096180;28;20160;-72
2023/12/28 03:32:42;;;;;;;6.10;2.97;;;11.30;99.90;;;;;;5077566;28;20533;-72
2023/12/28 03:35:08;;;;;;;8.60;2.37;;;11.30;99.90;;;;;;5095731;28;20532;-71
2023/12/28 03:37:34;;;;;;;6.53;2.77;;;11.30;99.90;;;;;;5096003;28;20634;-73
2023/12/28 03:39:59;;;;;;;7.00;2.53;;;11.30;99.90;;;;;;5095630;28;20545;-72
2023/12/28 03:42:25;;;;;;;3.57;2.53;;;11.30;99.90;;;;;;5095801;28;20168;-73
2023/12/28 03:44:50;;;;;;;8.17;2.80;;;11.30;99.90;;;;;;5095746;28;20164;-72
2023/12/28 03:47:16;;;;;;;5.83;2.60;;;11.40;99.90;;;;;;5095496;28;20172;-71
2023/12/28 03:49:42;;;;;;;6.33;2.47;;;11.30;99.90;;;;;;5095565;28;20257;-72
2023/12/28 03:52:07;;;;;;;6.47;2.50;;;11.40;99.90;;;;;;5095507;28;20189;-72
2023/12/28 03:54:33;;;;;;;4.97;2.30;;;11.30;99.90;;;;;;5095505;28;20184;-72
2023/12/28 03:56:58;;;;;;;9.37;2.57;;;11.30;99.90;;;;;;5095391;28;20694;-72
2023/12/28 03:59:24;;;;;;;7.83;2.53;;;11.20;99.90;;;;;;5095344;28;20573;-72
2023/12/28 04:01:49;;;;;;;4.60;2.37;;;11.30;99.90;;;;;;5077007;28;20175;-72
2023/12/28 04:04:15;;;;;;;7.13;2.70;;;11.40;99.90;;;;;;5076959;28;20167;-72
2023/12/28 04:06:42;;;;;;;6.47;2.40;;;11.40;99.90;;;;;;5095467;28;20262;-73
2023/12/28 04:09:08;;;;;;;4.73;2.40;;;11.50;99.90;;;;;;5076452;28;20217;-72
2023/12/28 04:11:34;;;;;;;5.17;2.43;;;11.40;99.90;;;;;;5094646;28;20588;-72
2023/12/28 04:13:59;;;;;;;7.27;2.30;;;11.40;99.90;;;;;;5095002;28;20208;-72
2023/12/28 04:16:25;;;;;;;7.93;2.80;;;11.40;99.90;;;;;;5094859;28;20168;-72
2023/12/28 04:18:50;;;;;;;6.03;2.27;;;11.40;99.90;;;;;;5094852;28;20160;-72
2023/12/28 04:21:16;;;;;;;4.77;2.00;;;11.30;99.90;;;;;;5094704;28;20199;-72
2023/12/28 04:23:42;;;;;;;12.43;2.73;;;11.30;99.90;;;;;;5094870;28;20168;-73
2023/12/28 04:26:08;;;;;;;4.80;2.33;;;11.30;99.90;;;;;;5095014;28;20176;-72
2023/12/28 04:28:35;;;;;;;5.93;2.53;;;11.40;99.90;;;;;;5094331;28;20219;-72
2023/12/28 04:31:05;;;;;;;5.67;2.47;;;11.30;99.90;;;;;;5094316;28;20167;-73
2023/12/28 04:33:31;;;;;;;7.50;2.37;;;11.40;99.90;;;;;;5094261;28;20191;-72
2023/12/28 04:35:56;;;;;;;7.00;2.50;;;11.40;99.90;;;;;;5094443;28;20168;-71
2023/12/28 04:38:22;;;;;;;7.60;2.30;;;11.50;99.90;;;;;;5094471;28;20172;-72
2023/12/28 04:40:47;;;;;;;5.83;2.37;;;11.50;99.90;;;;;;5094403;28;20210;-72
2023/12/28 04:43:13;;;;;;;5.87;2.70;;;11.40;99.90;;;;;;5094580;28;20172;-71
2023/12/28 04:45:38;;;;;;;8.43;2.60;;;11.40;99.90;;;;;;5093616;28;20168;-72
2023/12/28 04:48:04;;;;;;;4.40;2.27;;;11.40;99.90;;;;;;5094110;28;20243;-72
2023/12/28 04:50:30;;;;;;;10.53;2.53;;;11.30;99.90;;;;;;5094216;28;20164;-72
2023/12/28 04:52:55;;;;;;;5.57;2.70;;;11.20;99.90;;;;;;5075829;28;20642;-72
2023/12/28 04:55:21;;;;;;;7.37;2.83;;;11.20;99.90;;;;;;5093494;28;20251;-72
2023/12/28 04:57:47;;;;;;;7.83;2.70;;;11.20;99.90;;;;;;5093645;28;20646;-72
2023/12/28 05:00:12;;;;;;;6.13;2.50;;;11.20;99.90;;;;;;5093376;28;20545;-71
2023/12/28 05:02:38;;;;;;;6.03;2.30;;;11.10;99.90;;;;;;5093840;28;20533;-72
2023/12/28 05:05:04;;;;;;;8.70;2.60;;;11.10;99.90;;;;;;5093877;28;20175;-71
2023/12/28 05:07:29;;;;;;;7.27;2.50;;;11.10;99.90;;;;;;5094008;28;20176;-72
2023/12/28 05:09:55;;;;;;;11.77;2.90;;;11.00;99.90;;;;;;5093645;28;20519;-73
2023/12/28 05:12:20;;;;;;;7.47;2.63;;;11.00;99.90;;;;;;5093283;28;20210;-72
2023/12/28 05:14:46;;;;;;;9.17;2.60;;;11.10;99.90;;;;;;5093426;28;20236;-72
2023/12/28 05:17:11;;;;;;;11.20;2.50;;;11.10;99.90;;;;;;5093754;28;20213;-72
2023/12/28 05:19:37;;;;;;;9.03;2.57;;;11.00;99.90;;;;;;5093822;28;20175;-71
2023/12/28 05:22:06;;;;;;;7.23;2.47;;;11.00;99.90;;;;;;5093290;28;20172;-72
2023/12/28 05:24:32;;;;;;;12.00;2.53;;;11.00;99.90;;;;;;5093119;28;20245;-71
2023/12/28 05:26:58;;;;;;;14.97;2.73;;;11.00;99.90;;;;;;5093194;28;20646;-72
2023/12/28 05:29:23;;;;;;;11.77;2.60;;;11.10;99.90;;;;;;5092758;28;20280;-72
2023/12/28 05:31:49;;;;;;;7.10;3.03;;;11.10;99.90;;;;;;5093249;28;20168;-72
2023/12/28 05:34:15;;;;;;;12.97;3.00;;;11.10;99.90;;;;;;5093487;28;20225;-72
2023/12/28 05:36:41;;;;;;;9.97;2.90;;;11.10;99.90;;;;;;5093556;28;20172;-72
2023/12/28 05:39:09;;;;;;;9.47;2.90;;;11.20;99.90;;;;;;5093343;28;20684;-72
2023/12/28 05:41:35;;;;;;;9.50;2.80;;;11.20;99.90;;;;;;5092919;28;20215;-72
2023/12/28 05:44:00;;;;;;;9.53;2.13;;;11.20;99.90;;;;;;5092886;28;20648;-71
2023/12/28 05:46:26;;;;;;;9.20;2.87;;;11.20;99.90;;;;;;5093293;28;20631;-72
2023/12/28 05:48:51;;;;;;;8.53;2.33;;;11.20;99.90;;;;;;5092971;28;20261;-72
2023/12/28 05:51:18;;;;;;;13.00;2.53;;;11.20;99.90;;;;;;5092799;28;20167;-71
2023/12/28 05:53:44;;;;;;;8.20;2.43;;;11.20;99.90;;;;;;5093082;28;20221;-72
2023/12/28 05:56:09;;;;;;;12.90;2.87;;;11.20;99.90;;;;;;5092793;28;20172;-72
2023/12/28 05:58:36;;;;;;;8.50;2.27;;;11.10;99.90;;;;;;5092634;28;20172;-73
2023/12/28 06:01:04;;;;;;;10.10;2.50;;;11.20;99.90;;;;;;5092829;28;20192;-72
2023/12/28 06:03:30;;;;;;;10.77;2.30;;;11.10;99.90;;;;;;5092608;28;20172;-72
2023/12/28 06:05:55;;;;;;;8.47;2.67;;;11.10;99.90;;;;;;5092450;28;20176;-72
2023/12/28 06:08:21;;;;;;;11.73;2.77;;;11.10;99.90;;;;;;5092915;28;20221;-72
2023/12/28 06:10:46;;;;;;;13.67;3.03;;;11.10;99.90;;;;;;5092770;28;20271;-72
2023/12/28 06:13:12;;;;;;;8.80;2.50;;;11.10;99.90;;;;;;5092270;28;20568;-72
2023/12/28 06:15:38;;;;;;;13.43;2.77;;;11.20;99.90;;;;;;5092630;28;20643;-72
2023/12/28 06:18:04;;;;;;;11.87;2.90;;;11.20;99.90;;;;;;5092855;28;20195;-72
2023/12/28 06:20:29;;;;;;;4.53;2.30;;;11.10;99.90;;;;;;5092210;28;20578;-72
2023/12/28 06:22:55;;;;;;;8.10;2.43;;;11.20;99.90;;;;;;5092295;28;20172;-72
2023/12/28 06:25:21;;;;;;;8.93;2.67;;;11.10;99.90;;;;;;5092820;28;20207;-71
2023/12/28 06:27:46;;;;;;;9.00;2.23;;;11.00;99.90;;;;;;5091567;28;20257;-72
2023/12/28 06:30:12;;;;;;;9.03;2.50;;;11.00;99.90;;;;;;5092395;28;20203;-72
2023/12/28 06:32:38;;;;;;;10.50;2.50;;;11.00;99.90;;;;;;5093119;28;20180;-72
2023/12/28 06:35:04;;;;;;;11.20;2.70;;;11.00;99.90;;;;;;5096571;28;20251;-72
2023/12/28 06:37:29;;;;;;;9.40;2.23;;;10.90;99.90;;;;;;5096469;28;20168;-72
2023/12/28 06:39:55;;;;;;;9.27;3.00;;;10.90;99.90;;;;;;5095975;28;20207;-71
2023/12/28 06:42:21;;;;;;;10.20;2.43;;;10.80;99.90;;;;;;5077665;28;20324;-72
2023/12/28 06:44:46;;;;;;;10.23;2.60;;;10.80;99.90;;;;;;5095934;28;20225;-72
2023/12/28 06:47:12;;;;;;;12.57;2.53;;;10.80;99.90;;;;;;5096345;28;20531;-72
2023/12/28 06:49:37;;;;;;;9.67;2.53;;;10.90;99.90;;;;;;5095962;28;20176;-72
2023/12/28 06:52:03;;;;;;;11.20;2.60;;;10.80;99.90;;;;;;5095805;28;20172;-72
2023/12/28 06:54:28;;;;;;;10.63;2.63;;;10.80;99.90;;;;;;5096264;28;20180;-72
2023/12/28 06:56:54;;;;;;;10.20;2.70;;;10.80;99.90;;;;;;5095691;28;20631;-72
2023/12/28 06:59:20;;;;;;;10.23;2.93;;;10.70;99.90;;;;;;5095371;28;20619;-72
2023/12/28 07:01:45;;;;;;;14.47;2.60;;;10.70;99.90;;;;;;5077603;28;20230;-72
2023/12/28 07:04:12;;;;;;;7.47;2.60;;;10.70;99.90;;;;;;5096013;28;20168;-72
2023/12/28 07:06:37;;;;;;;8.40;2.43;;;10.70;99.90;;;;;;5095801;28;20237;-72
2023/12/28 07:09:04;;;;;;;15.47;3.40;;;10.60;99.90;;;;;;5095559;28;20168;-72
2023/12/28 07:11:30;;;;;;;10.07;2.67;;;10.60;99.90;;;;;;5094832;28;20291;-72
2023/12/28 07:13:55;;;;;;;11.33;2.67;;;10.60;99.90;;;;;;5095650;28;20639;-72
2023/12/28 07:16:21;;;;;;;10.43;2.57;;;10.50;99.90;;;;;;5095995;28;20537;-72
2023/12/28 07:18:46;;;;;;;10.13;2.93;;;10.70;99.90;;;;;;5095607;28;20176;-72
2023/12/28 07:21:12;;;;;;;12.80;2.80;;;10.60;99.90;;;;;;5095309;28;20625;-72
2023/12/28 07:23:38;;;;;;;14.40;2.67;;;10.60;99.90;;;;;;5077230;28;20225;-72
2023/12/28 07:26:04;;;;;;;8.77;2.50;;;10.70;99.90;;;;;;5095368;28;20168;-72
2023/12/28 07:28:29;;;;;;;13.53;3.27;;;10.60;99.90;;;;;;5076548;28;20591;-73
2023/12/28 07:30:55;;;;;;;14.10;2.70;;;10.60;99.90;;;;;;5094809;28;20179;-72
2023/12/28 07:33:21;;;;;;;10.03;2.67;;;10.60;99.90;;;;;;5095353;28;20239;-72
2023/12/28 07:35:46;;;;;;;10.43;3.00;;;10.70;99.90;;;;;;5077180;28;20241;-72
2023/12/28 07:38:12;;;;;;;11.67;3.37;;;10.70;99.90;;;;;;5095280;28;20179;-72
2023/12/28 07:40:38;;;;;;;11.07;2.70;;;10.70;99.90;;;;;;5094771;28;20212;-73
2023/12/28 07:43:04;;;;;;;12.43;2.57;;;10.70;99.90;;;;;;5094767;28;20520;-72
2023/12/28 07:45:29;;;;;;;12.93;3.07;;;10.70;99.90;;;;;;5093741;28;20180;-73
2023/12/28 07:47:55;;;;;;;12.10;2.97;;;10.60;99.90;;;;;;5094821;28;20172;-72
2023/12/28 07:50:21;;;;;;;20.20;3.47;;;10.60;99.90;;;;;;5094955;28;20236;-72
2023/12/28 07:52:47;;;;;;;9.57;2.73;;;10.70;99.90;;;;;;5094621;28;20211;-72
2023/12/28 07:55:13;;;;;;;10.43;2.90;;;10.70;99.90;;;;;;5094312;28;20168;-73
2023/12/28 07:57:40;;;;;;;10.77;3.33;;;10.70;99.90;;;;;;5097112;28;20241;-73
2023/12/28 08:00:06;;;;;;;7.33;2.33;;;10.60;99.90;;;;;;5094908;28;20487;-72
2023/12/28 08:02:31;;;;;;;16.57;3.40;;;10.70;99.90;;;;;;5095002;28;20168;-72
2023/12/28 08:04:57;;;;;;;12.17;2.57;;;10.70;99.90;;;;;;5094356;28;20160;-72
2023/12/28 08:07:22;;;;;;;16.97;2.93;;;10.70;99.90;;;;;;5094592;28;20172;-71
2023/12/28 08:09:48;;;;;;;14.53;3.30;;;10.70;99.90;;;;;;5093997;28;20172;-73
2023/12/28 08:12:14;;;;;;;10.90;2.97;;;10.70;99.90;;;;;;5076183;28;20192;-72
2023/12/28 08:14:39;;;;;;;13.63;3.07;;;10.80;99.90;;;;;;5076659;28;20182;-71
2023/12/28 08:17:05;;;;;;;11.37;2.70;;;10.80;99.90;;;;;;5094429;28;20172;-73
2023/12/28 08:19:30;;;;;;;13.77;3.10;;;10.90;99.90;;;;;;5094454;28;20192;-72
2023/12/28 08:21:56;;;;;;;15.67;3.40;;;10.90;99.90;;;;;;5075824;28;20207;-72
2023/12/28 08:24:21;;;;;;;11.43;3.27;;;11.00;99.90;;;;;;5094272;28;20225;-72
2023/12/28 08:26:47;;;;;;;13.60;2.60;;;11.00;99.90;;;;;;5094337;28;20164;-71
2023/12/28 08:29:13;;;;;;;15.93;2.87;;;11.10;99.90;;;;;;5094118;28;20726;-72
2023/12/28 08:31:38;;;;;;;9.70;2.63;;;11.30;99.90;;;;;;5093739;28;20217;-73
2023/12/28 08:34:04;;;;;;;13.13;2.70;;;11.20;99.90;;;;;;5093789;28;20191;-72
2023/12/28 08:36:29;;;;;;;12.67;2.37;;;11.40;99.90;;;;;;5093674;28;20179;-73
2023/12/28 08:38:55;;;;;;;8.73;2.83;;;11.40;99.90;;;;;;5093426;28;20619;-72
2023/12/28 08:41:23;;;;;;;12.90;2.80;;;11.50;99.90;;;;;;5093671;28;20734;-73
2023/12/28 08:43:50;;;;;;;8.77;2.70;;;11.70;99.90;;;;;;5075248;28;20164;-73
2023/12/28 08:46:16;;;;;;;12.17;3.03;;;11.70;99.90;;;;;;5094422;28;20168;-73
2023/12/28 08:48:42;;;;;;;13.47;3.13;;;11.70;99.90;;;;;;5093359;28;20171;-72
2023/12/28 08:51:10;;;;;;;12.27;3.13;;;11.90;99.90;;;;;;5093493;28;20241;-73
2023/12/28 08:53:36;;;;;;;7.37;2.73;;;12.00;99.90;;;;;;5093039;28;20200;-73
2023/12/28 08:56:02;;;;;;;14.47;2.70;;;12.00;99.90;;;;;;5093431;28;20292;-73
2023/12/28 08:58:27;;;;;;;9.93;2.67;;;12.00;99.90;;;;;;5094124;28;20221;-73
2023/12/28 09:00:53;;;;;;;13.67;3.17;;;12.10;99.90;;;;;;5092747;28;20207;-73
2023/12/28 09:03:18;;;;;;;14.50;3.63;;;12.00;99.90;;;;;;5093353;28;20168;-74
2023/12/28 09:05:44;;;;;;;10.97;3.07;;;12.00;99.90;;;;;;5093627;28;20183;-72
2023/12/28 09:08:10;;;;;;;11.67;3.13;;;12.10;99.90;;;;;;5093811;28;20211;-73
2023/12/28 09:10:35;;;;;;;11.90;3.27;;;12.40;99.90;;;;;;5092994;28;20225;-71
2023/12/28 09:13:04;;;;;;;11.37;2.60;;;12.50;99.90;;;;;;5093185;28;20237;-72
2023/12/28 09:15:29;;;;;;;9.47;2.90;;;12.60;99.90;;;;;;5093288;28;20176;-72
2023/12/28 09:17:56;;;;;;;9.47;2.50;;;12.60;99.90;;;;;;5093672;28;20171;-72
2023/12/28 09:20:21;;;;;;;11.67;2.80;;;12.60;99.90;;;;;;5093045;28;20195;-72
2023/12/28 09:22:50;;;;;;;14.67;3.07;;;12.40;99.90;;;;;;5093094;28;20724;-72
2023/12/28 09:25:16;;;;;;;14.63;3.27;;;12.30;99.90;;;;;;5074536;28;20729;-73
2023/12/28 09:27:41;;;;;;;20.63;3.43;;;12.20;99.90;;;;;;5092987;28;20215;-73
2023/12/28 09:30:08;;;;;;;15.07;3.43;;;12.30;99.90;;;;;;5093117;28;20611;-72
2023/12/28 09:32:33;;;;;;;9.90;2.50;;;12.70;99.90;;;;;;5092809;28;20176;-72
2023/12/28 09:34:59;;;;;;;8.90;2.67;;;12.80;99.90;;;;;;5092662;28;20172;-72
2023/12/28 09:37:24;;;;;;;8.37;3.07;;;12.90;99.90;;;;;;5092931;28;20168;-73
2023/12/28 09:39:50;;;;;;;12.63;2.93;;;13.10;99.90;;;;;;5092765;28;20191;-72
2023/12/28 09:42:28;;;;;;;11.50;3.50;;;13.30;99.90;;;;;;5092987;28;20234;-73
2023/12/28 09:44:54;;;;;;;11.03;3.17;;;13.40;99.90;;;;;;5093474;28;20163;-73
2023/12/28 09:47:20;;;;;;;15.60;3.10;;;13.20;99.90;;;;;;5093042;28;20167;-72
2023/12/28 09:49:47;;;;;;;11.67;3.10;;;13.20;99.90;;;;;;5092490;28;20278;-71
2023/12/28 09:52:12;;;;;;;10.60;2.40;;;13.00;99.90;;;;;;5092863;28;20183;-73
2023/12/28 09:54:38;;;;;;;9.70;3.17;;;12.80;99.90;;;;;;5092616;28;20176;-73
2023/12/28 09:57:05;;;;;;;11.03;3.33;;;12.70;99.90;;;;;;5092363;28;20196;-73
2023/12/28 09:59:32;;;;;;;13.30;3.30;;;12.70;99.90;;;;;;5092956;28;20638;-73
2023/12/28 10:02:00;;;;;;;18.47;3.83;;;12.90;99.90;;;;;;5092291;28;20212;-73
2023/12/28 10:04:28;;;;;;;13.03;3.20;;;13.00;99.90;;;;;;5092670;28;20168;-72
2023/12/28 10:06:54;;;;;;;13.10;3.00;;;12.90;99.90;;;;;;5092138;28;20225;-73
2023/12/28 10:09:21;;;;;;;14.20;3.40;;;12.90;99.90;;;;;;5092547;28;20172;-73
2023/12/28 10:11:47;;;;;;;10.50;3.40;;;12.80;99.90;;;;;;5092441;28;20548;-72
2023/12/28 10:14:13;;;;;;;13.57;3.00;;;12.80;99.90;;;;;;5074320;28;20172;-73
2023/12/28 10:16:42;;;;;;;11.47;2.63;;;12.70;99.90;;;;;;5092654;28;20176;-72
2023/12/28 10:19:07;;;;;;;8.97;2.70;;;12.70;99.90;;;;;;5074533;28;20225;-73
2023/12/28 10:21:34;;;;;;;12.30;2.73;;;12.60;99.90;;;;;;5092034;28;20634;-74
2023/12/28 10:23:59;;;;;;;12.90;3.60;;;12.50;99.90;;;;;;5092336;28;20205;-74
2023/12/28 10:26:25;;;;;;;17.07;3.50;;;12.50;99.90;;;;;;5092485;28;20179;-73
2023/12/28 10:28:58;;;;;;;10.13;2.80;;;12.60;99.90;;;;;;5092362;28;20613;-73
2023/12/28 10:31:24;;;;;;;14.87;3.33;;;12.60;99.90;;;;;;5092915;28;20248;-73
2023/12/28 10:33:50;;;;;;;9.77;2.80;;;12.50;99.90;;;;;;5091772;28;20695;-74
2023/12/28 10:36:16;;;;;;;14.20;3.10;;;12.40;99.90;;;;;;5074641;28;20727;-73
2023/12/28 10:38:45;;;;;;;14.30;3.47;;;12.40;99.90;;;;;;5092879;28;20191;-74
2023/12/28 10:41:13;;;;;;;15.23;3.40;;;12.30;99.90;;;;;;5092257;28;20274;-73
2023/12/28 10:43:57;;;;;;;17.57;3.50;;;12.40;99.90;;;;;;5092424;28;20172;-73
2023/12/28 10:46:27;;;;;;;13.13;2.87;;;12.50;99.90;;;;;;5091330;28;20187;-73
2023/12/28 10:48:58;;;;;;;16.27;3.33;;;12.60;99.90;;;;;;5091459;28;20522;-73
2023/12/28 10:51:27;;;;;;;16.60;3.17;;;12.60;99.90;;;;;;5092322;28;20172;-73
2023/12/28 10:54:21;;;;;;;13.07;2.90;;;12.70;99.90;;;;;;5092692;28;20265;-73
2023/12/28 10:56:51;;;;;;;15.40;3.40;;;13.00;99.90;;;;;;5091440;28;20231;-73
2023/12/28 10:59:21;;;;;;;12.43;3.50;;;13.20;99.90;;;;;;5092110;28;20619;-74
2023/12/28 11:01:51;;;;;;;13.20;2.70;;;13.50;99.90;;;;;;5092056;28;20218;-73
2023/12/28 11:04:41;;;;;;;16.27;3.23;;;13.40;99.90;;;;;;5092101;28;20638;-73
2023/12/28 11:07:09;;;;;;;11.70;2.97;;;13.10;99.90;;;;;;5092203;28;20167;-73
2023/12/28 11:09:37;;;;;;;12.60;3.33;;;13.20;99.90;;;;;;5092187;28;20175;-73
2023/12/28 11:12:06;;;;;;;12.30;3.27;;;13.30;99.90;;;;;;5091417;28;20690;-73
2023/12/28 11:14:33;;;;;;;13.47;3.27;;;13.40;99.90;;;;;;5073712;28;20554;-72
2023/12/28 11:17:02;;;;;;;15.53;3.67;;;13.30;99.90;;;;;;5091887;28;20223;-73
2023/12/28 11:19:30;;;;;;;15.17;3.77;;;13.20;99.90;;;;;;5093486;28;20187;-73
2023/12/28 11:21:57;;;;;;;10.20;3.30;;;13.20;99.90;;;;;;5077065;28;20211;-73
2023/12/28 11:24:23;;;;;;;14.37;3.40;;;13.20;99.90;;;;;;5095621;28;20536;-73
2023/12/28 11:26:54;;;;;;;14.13;3.43;;;13.20;99.90;;;;;;5095616;28;20193;-74
2023/12/28 11:29:20;;;;;;;15.70;3.37;;;13.10;99.90;;;;;;5095418;28;20717;-73
2023/12/28 11:31:54;;;;;;;11.73;3.07;;;12.90;99.90;;;;;;5095047;28;20175;-74
2023/12/28 11:34:28;;;;;;;15.93;3.53;;;12.90;99.90;;;;;;5094889;28;20237;-73
2023/12/28 11:36:55;;;;;;;12.57;3.33;;;12.80;99.90;;;;;;5095561;28;20168;-74
2023/12/28 11:39:35;;;;;;;12.60;3.63;;;12.80;99.90;;;;;;5095276;28;20183;-73
2023/12/28 11:42:05;;;;;;;10.87;3.40;;;12.90;99.90;;;;;;5095121;28;20272;-73
2023/12/28 11:44:41;;;;;;;13.83;3.37;;;12.80;99.90;;;;;;5095175;28;20271;-73
2023/12/28 11:47:21;;;;;;;16.37;3.10;;;12.80;99.90;;;;;;5094058;28;20164;-73
2023/12/28 11:49:48;;;;;;;14.37;3.37;;;12.90;99.90;;;;;;5094748;28;20172;-73
2023/12/28 11:52:28;;;;;;;13.43;3.20;;;12.90;99.90;;;;;;5095203;28;20171;-73
2023/12/28 11:54:55;;;;;;;11.70;3.33;;;12.90;99.90;;;;;;5094121;28;20573;-73
2023/12/28 11:57:21;;;;;;;11.57;3.17;;;13.00;99.90;;;;;;5094481;28;20225;-74
2023/12/28 11:59:52;;;;;;;13.30;3.27;;;13.00;99.90;;;;;;5095167;28;20164;-73
2023/12/28 12:02:19;;;;;;;11.93;3.30;;;13.10;99.90;;;;;;5094309;28;20175;-74
2023/12/28 12:04:44;;;;;;;14.30;3.23;;;13.00;99.90;;;;;;5094823;28;20199;-75
2023/12/28 12:07:10;;;;;;;16.27;3.60;;;12.90;99.90;;;;;;5095074;28;20210;-73
2023/12/28 12:09:36;;;;;;;15.67;4.17;;;13.00;99.90;;;;;;5094267;28;20557;-74
2023/12/28 12:12:02;;;;;;;14.30;3.30;;;13.00;99.90;;;;;;5093890;28;20195;-73
2023/12/28 12:14:29;;;;;;;16.83;3.50;;;13.00;99.90;;;;;;5093990;28;20174;-73
2023/12/28 12:16:56;;;;;;;15.33;3.47;;;13.00;99.90;;;;;;5094865;28;20496;-74
2023/12/28 12:19:23;;;;;;;12.53;2.93;;;13.10;99.90;;;;;;5094606;28;20168;-73
2023/12/28 12:21:49;;;;;;;11.13;3.67;;;13.00;99.90;;;;;;5093565;28;20258;-76
2023/12/28 12:24:17;;;;;;;12.90;3.13;;;13.00;99.90;;;;;;5094047;28;20172;-73
2023/12/28 12:26:43;;;;;;;16.37;3.43;;;13.10;99.90;;;;;;5094366;28;20184;-72
2023/12/28 12:29:08;;;;;;;12.20;3.70;;;13.00;99.90;;;;;;5093456;28;20223;-73
2023/12/28 12:31:34;;;;;;;11.90;3.20;;;13.00;99.90;;;;;;5093066;28;20172;-73
2023/12/28 12:33:59;;;;;;;14.37;3.37;;;12.90;99.90;;;;;;5094341;28;20174;-74
2023/12/28 12:36:25;;;;;;;12.77;3.63;;;12.90;99.90;;;;;;5094007;28;20168;-73
2023/12/28 12:38:51;;;;;;;11.97;3.10;;;12.90;99.90;;;;;;5094298;28;20645;-74